createdAt,value
2023-05-13T00:00:21.952Z,2.80
2023-05-13T00:05:23.712Z,2.60
2023-05-13T00:10:25.226Z,2.45
2023-05-13T00:15:27.427Z,2.67
2023-05-13T00:20:28.985Z,2.90
2023-05-13T00:25:30.626Z,2.58
2023-05-13T00:30:32.454Z,2.70
2023-05-13T00:35:33.981Z,3.05
2023-05-13T00:40:42.373Z,3.00
2023-05-13T00:45:43.896Z,2.83
2023-05-13T00:50:45.626Z,3.28
2023-05-13T00:55:47.305Z,3.85
2023-05-13T01:01:27.124Z,3.35
2023-05-13T01:06:56.915Z,4.25
2023-05-13T01:12:07.563Z,4.22
2023-05-13T01:17:18.126Z,4.10
2023-05-13T01:22:20.046Z,4.18
2023-05-13T01:27:21.679Z,4.30
2023-05-13T01:32:24.100Z,4.93
2023-05-13T01:37:26.123Z,4.57
2023-05-13T01:42:30.044Z,5.18
2023-05-13T01:47:32.260Z,5.25
2023-05-13T01:52:34.141Z,4.68
2023-05-13T01:57:36.175Z,4.13
2023-05-13T02:02:37.869Z,4.00
2023-05-13T02:07:39.481Z,4.30
2023-05-13T02:12:41.293Z,4.53
2023-05-13T02:17:42.983Z,4.32
2023-05-13T02:22:44.545Z,3.97
2023-05-13T02:27:46.061Z,4.70
2023-05-13T02:32:47.776Z,4.15
2023-05-13T02:37:49.476Z,4.32
2023-05-13T02:42:51.457Z,3.72
2023-05-13T02:48:00.063Z,4.40
2023-05-13T02:53:02.692Z,4.95
2023-05-13T02:58:06.305Z,4.35
2023-05-13T03:03:08.570Z,4.80
2023-05-13T03:08:12.861Z,4.50
2023-05-13T03:13:14.456Z,4.45
2023-05-13T03:18:17.200Z,4.28
2023-05-13T03:23:19.008Z,4.72
2023-05-13T03:28:22.770Z,5.13
2023-05-13T03:33:24.398Z,4.55
2023-05-13T03:38:25.921Z,4.70
2023-05-13T03:43:28.319Z,4.68
2023-05-13T03:48:34.512Z,4.32
2023-05-13T03:53:37.453Z,5.00
2023-05-13T03:58:39.228Z,5.20
2023-05-13T04:03:42.845Z,4.90
2023-05-13T04:08:44.414Z,4.97
2023-05-13T04:13:46.104Z,5.13
2023-05-13T04:18:47.730Z,4.70
2023-05-13T04:23:49.258Z,4.75
2023-05-13T04:28:51.172Z,4.85
2023-05-13T04:33:53.183Z,4.57
2023-05-13T04:38:55.496Z,4.70
2023-05-13T04:43:57.907Z,4.05
2023-05-13T04:48:59.578Z,3.80
2023-05-13T04:54:01.701Z,4.00
2023-05-13T04:59:03.952Z,4.40
2023-05-13T05:04:06.020Z,4.20
2023-05-13T05:09:09.677Z,4.10
2023-05-13T05:14:11.322Z,4.35
2023-05-13T05:19:13.028Z,3.78
2023-05-13T05:24:14.976Z,4.00
2023-05-13T05:29:16.710Z,3.80
2023-05-13T05:34:19.340Z,3.28
2023-05-13T05:39:22.131Z,3.25
2023-05-13T05:44:23.871Z,3.10
2023-05-13T05:49:25.676Z,2.67
2023-05-13T05:54:28.042Z,3.10
2023-05-13T05:59:29.828Z,2.88
2023-05-13T06:04:31.603Z,2.70
2023-05-13T06:09:35.764Z,2.90
2023-05-13T06:14:38.104Z,3.20
2023-05-13T06:19:39.626Z,2.58
2023-05-13T06:24:42.984Z,2.70
2023-05-13T06:29:44.621Z,2.92
2023-05-13T06:34:47.441Z,2.60
2023-05-13T06:39:49.161Z,2.88
2023-05-13T06:44:52.026Z,2.40
2023-05-13T06:49:58.412Z,2.70
2023-05-13T06:54:59.995Z,2.90
2023-05-13T07:00:02.355Z,2.50
2023-05-13T07:05:04.137Z,2.70
2023-05-13T07:10:06.031Z,2.40
2023-05-13T07:15:08.482Z,2.40
2023-05-13T07:20:10.352Z,2.92
2023-05-13T07:25:12.505Z,2.92
2023-05-13T07:30:14.393Z,2.75
2023-05-13T07:35:17.162Z,2.50
2023-05-13T07:40:20.177Z,2.65
2023-05-13T07:45:22.375Z,2.50
2023-05-13T07:50:24.290Z,2.95
2023-05-13T07:55:26.015Z,2.55
2023-05-13T08:00:27.540Z,2.75
2023-05-13T08:05:29.069Z,2.58
2023-05-13T08:10:30.768Z,2.45
2023-05-13T08:15:32.368Z,2.75
2023-05-13T08:20:33.965Z,2.53
2023-05-13T08:25:35.521Z,2.90
2023-05-13T08:30:37.031Z,2.67
2023-05-13T08:35:38.691Z,2.80
2023-05-13T08:40:42.379Z,2.60
2023-05-13T08:45:47.991Z,2.60
2023-05-13T08:50:50.128Z,2.80
2023-05-13T08:55:52.326Z,2.58
2023-05-13T09:00:54.446Z,2.58
2023-05-13T09:05:56.426Z,2.38
2023-05-13T09:10:58.122Z,2.83
2023-05-13T09:15:59.720Z,2.17
2023-05-13T09:21:30.419Z,2.95
2023-05-13T09:26:31.975Z,2.40
2023-05-13T09:31:33.847Z,2.40
2023-05-13T09:36:35.429Z,2.30
2023-05-13T09:41:37.059Z,2.33
2023-05-13T09:46:38.917Z,2.15
2023-05-13T09:51:40.451Z,2.13
2023-05-13T09:56:42.217Z,2.10
2023-05-13T10:01:45.485Z,2.40
2023-05-13T10:06:48.930Z,2.17
2023-05-13T10:11:50.731Z,2.30
2023-05-13T10:16:52.907Z,1.80
2023-05-13T10:21:57.388Z,1.88
2023-05-13T10:27:01.599Z,1.88
2023-05-13T10:32:04.667Z,2.10
2023-05-13T10:37:16.615Z,1.92
2023-05-13T10:42:43.430Z,2.20
2023-05-13T10:47:50.122Z,1.83
2023-05-13T10:52:56.854Z,1.88
2023-05-13T10:58:08.503Z,1.92
2023-05-13T11:03:29.358Z,1.40
2023-05-13T11:08:41.498Z,1.70
2023-05-13T11:13:43.150Z,1.35
2023-05-13T11:18:44.853Z,1.50
2023-05-13T11:24:06.592Z,1.50
2023-05-13T11:29:08.083Z,1.45
2023-05-13T11:34:14.777Z,1.73
2023-05-13T11:39:18.739Z,1.40
2023-05-13T11:44:22.784Z,1.40
2023-05-13T11:49:45.064Z,1.40
2023-05-13T11:54:49.456Z,1.27
2023-05-13T11:59:55.418Z,1.65
2023-05-13T12:05:07.459Z,1.40
2023-05-13T12:10:09.442Z,1.60
2023-05-13T12:15:15.654Z,1.55
2023-05-13T12:20:18.976Z,1.73
2023-05-13T12:25:36.774Z,1.63
2023-05-13T12:30:54.480Z,1.73
2023-05-13T12:36:20.191Z,1.95
2023-05-13T12:41:22.891Z,1.80
2023-05-13T12:46:24.773Z,1.90
2023-05-13T12:51:26.611Z,1.88
2023-05-13T12:56:28.222Z,1.80
2023-05-13T13:01:29.857Z,2.25
2023-05-13T13:06:32.374Z,2.47
2023-05-13T13:11:33.939Z,2.58
2023-05-13T13:16:35.487Z,2.15
2023-05-13T13:21:37.156Z,2.10
2023-05-13T13:26:38.730Z,2.05
2023-05-13T13:31:40.308Z,1.80
2023-05-13T13:36:41.964Z,2.10
2023-05-13T13:41:43.501Z,2.50
2023-05-13T13:46:45.202Z,2.22
2023-05-13T13:51:46.725Z,2.45
2023-05-13T13:56:48.337Z,1.98
2023-05-13T14:01:50.119Z,1.88
2023-05-13T14:06:52.230Z,1.92
2023-05-13T14:11:53.800Z,2.00
2023-05-13T14:16:55.353Z,1.90
2023-05-13T14:21:56.903Z,1.92
2023-05-13T14:26:59.131Z,2.15
2023-05-13T14:32:02.829Z,2.70
2023-05-13T14:37:04.578Z,1.83
2023-05-13T14:42:06.414Z,1.60
2023-05-13T14:47:08.357Z,2.00
2023-05-13T14:52:10.102Z,2.00
2023-05-13T14:57:11.801Z,2.00
2023-05-13T15:02:13.955Z,1.88
2023-05-13T15:07:15.650Z,1.90
2023-05-13T15:12:17.197Z,1.60
2023-05-13T15:17:18.897Z,1.77
2023-05-13T15:22:20.478Z,1.83
2023-05-13T15:27:22.115Z,1.73
2023-05-13T15:32:23.644Z,1.70
2023-05-13T15:37:25.176Z,2.00
2023-05-13T15:42:27.599Z,1.70
2023-05-13T15:47:29.225Z,1.92
2023-05-13T15:52:30.801Z,2.00
2023-05-13T15:57:32.465Z,1.80
2023-05-13T16:02:39.785Z,1.60
2023-05-13T16:07:42.441Z,1.70
2023-05-13T16:12:44.077Z,1.75
2023-05-13T16:17:45.649Z,1.52
2023-05-13T16:22:47.244Z,2.08
2023-05-13T16:27:49.178Z,1.60
2023-05-13T16:32:53.444Z,1.90
2023-05-13T16:37:55.061Z,1.90
2023-05-13T16:42:59.295Z,1.80
2023-05-13T16:48:02.665Z,2.10
2023-05-13T16:53:04.323Z,2.20
2023-05-13T16:58:05.889Z,2.03
2023-05-13T17:03:07.848Z,2.00
2023-05-13T17:08:09.882Z,2.33
2023-05-13T17:13:11.679Z,2.50
2023-05-13T17:18:15.880Z,2.38
2023-05-13T17:23:17.463Z,1.63
2023-05-13T17:28:18.978Z,2.10
2023-05-13T17:33:20.545Z,2.00
2023-05-13T17:38:22.177Z,1.90
2023-05-13T17:43:23.680Z,2.00
2023-05-13T17:48:26.678Z,2.20
2023-05-13T17:53:28.507Z,2.22
2023-05-13T17:58:30.031Z,2.00
2023-05-13T18:03:31.576Z,2.22
2023-05-13T18:08:33.136Z,2.30
2023-05-13T18:13:35.968Z,2.30
2023-05-13T18:18:37.680Z,2.92
2023-05-13T18:23:39.350Z,2.78
2023-05-13T18:28:41.441Z,2.63
2023-05-13T18:33:43.030Z,2.50
2023-05-13T18:38:47.779Z,2.80
2023-05-13T18:43:50.400Z,3.20
2023-05-13T18:48:51.916Z,2.80
2023-05-13T18:53:53.411Z,2.95
2023-05-13T18:58:54.923Z,3.30
2023-05-13T19:03:56.856Z,3.40
2023-05-13T19:08:58.446Z,3.05
2023-05-13T19:13:59.999Z,3.10
2023-05-13T19:19:01.650Z,3.67
2023-05-13T19:24:03.456Z,4.35
2023-05-13T19:29:05.059Z,4.63
2023-05-13T19:34:07.684Z,4.40
2023-05-13T19:39:10.301Z,5.30
2023-05-13T19:44:11.815Z,5.72
2023-05-13T19:49:13.394Z,5.18
2023-05-13T19:54:14.914Z,5.15
2023-05-13T19:59:16.468Z,6.25
2023-05-13T20:04:18.013Z,4.65
2023-05-13T20:09:19.518Z,4.00
2023-05-13T20:14:27.810Z,4.30
2023-05-13T20:19:29.423Z,4.20
2023-05-13T20:24:31.051Z,4.05
2023-05-13T20:29:42.173Z,4.53
2023-05-13T20:34:44.092Z,5.95
2023-05-13T20:39:47.909Z,5.30
2023-05-13T20:44:50.628Z,5.20
2023-05-13T20:49:52.141Z,5.93
2023-05-13T20:54:53.676Z,6.13
2023-05-13T20:59:55.497Z,5.53
2023-05-13T21:04:57.170Z,4.55
2023-05-13T21:09:58.704Z,5.63
2023-05-13T21:15:00.215Z,6.07
2023-05-13T21:20:01.831Z,5.85
2023-05-13T21:25:03.543Z,5.40
2023-05-13T21:30:06.060Z,5.70
2023-05-13T21:35:08.057Z,5.53
2023-05-13T21:40:09.964Z,5.32
2023-05-13T21:45:13.025Z,5.93
2023-05-13T21:50:17.034Z,5.82
2023-05-13T21:55:18.709Z,6.45
2023-05-13T22:00:21.737Z,5.82
2023-05-13T22:05:23.903Z,5.20
2023-05-13T22:10:25.753Z,5.28
2023-05-13T22:15:29.845Z,5.10
2023-05-13T22:20:31.450Z,5.18
2023-05-13T22:25:33.269Z,4.90
2023-05-13T22:30:34.967Z,5.13
2023-05-13T22:35:36.690Z,5.70
2023-05-13T22:40:38.314Z,5.72
2023-05-13T22:45:39.956Z,5.35
2023-05-13T22:50:41.623Z,5.78
2023-05-13T22:55:43.152Z,5.45
2023-05-13T23:00:44.680Z,5.90
2023-05-13T23:05:46.229Z,6.05
2023-05-13T23:10:47.810Z,6.72
2023-05-13T23:15:49.522Z,6.07
2023-05-13T23:20:58.188Z,5.63
2023-05-13T23:25:59.744Z,6.30
2023-05-13T23:31:01.333Z,5.65
2023-05-13T23:36:02.864Z,5.70
2023-05-13T23:41:04.401Z,6.10
2023-05-13T23:46:06.011Z,5.82
2023-05-13T23:51:07.633Z,6.15
2023-05-13T23:56:09.179Z,6.10
